Flight Track Log - Related Links

Times and Time Zones

All times are in EDT time to prevent confusion due to time zone crossing. See the AFL150 flight status page for this flight to view local times or setup timezone preferences in your user account.

Time Position Orientation Groundspeed Altitude Reporting Facility
EDT Latitude Longitude Course Direction KTS MPH feet Rate Location/Type
Sun 06:30:00 AM 56.1563 36.6972 307° West  Level Estimated
Sun 06:31:00 AM 56.2285 36.5196 306° West  Level Estimated
Sun 06:32:00 AM 56.3004 36.3414 306° West  Level Estimated
Sun 06:33:00 AM 56.3721 36.1625 306° West  Level Estimated
Sun 06:34:00 AM 56.4436 35.9829 306° West  Level Estimated
Sun 06:35:00 AM 56.5147 35.8027 306° West  Level Estimated
Sun 06:36:00 AM 56.5856 35.6218 305° West  Level Estimated
Sun 06:37:00 AM 56.6563 35.4402 305° West  Level Estimated
Sun 06:38:00 AM 56.7267 35.2579 305° West  Level Estimated
Sun 06:39:00 AM 56.7968 35.0749 305° West  Level Estimated
Sun 06:40:00 AM 56.8666 34.8913 305° West  Level Estimated
Sun 06:41:00 AM 56.9362 34.7070 305° West  Level Estimated
Sun 06:42:00 AM 57.0055 34.5220 305° West  Level Estimated
Sun 06:43:00 AM 57.0745 34.3363 304° West  Level Estimated
Sun 06:44:00 AM 57.1433 34.1499 304° West  Level Estimated
Sun 06:45:00 AM 57.2117 33.9628 304° West  Level Estimated
Sun 06:46:00 AM 57.2799 33.7750 304° West  Level Estimated
Sun 06:47:00 AM 57.3479 33.5865 304° West  Level Estimated
Sun 06:48:00 AM 57.4155 33.3973 304° West  Level Estimated
Sun 06:49:00 AM 57.4828 33.2075 303° West  Level Estimated
Sun 06:50:00 AM 57.5499 33.0169 303° West  Level Estimated
Sun 06:51:00 AM 57.6167 32.8256 303° West  Level Estimated
Sun 06:52:00 AM 57.6832 32.6336 303° West  Level Estimated
Sun 06:53:00 AM 57.7493 32.4409 303° West  Level Estimated
Sun 06:54:00 AM 57.8152 32.2476 303° West  Level Estimated
Sun 06:55:00 AM 57.8808 32.0535 303° West  Level Estimated
Sun 06:56:00 AM 57.9461 31.8587 302° West  Level Estimated
Sun 06:57:00 AM 58.0112 31.6632 302° West  Level Estimated
Sun 06:58:00 AM 58.0759 31.4669 302° West  Level Estimated
Sun 06:59:00 AM 58.1403 31.2700 302° West  Level Estimated
Sun 07:00:00 AM 58.2044 31.0724 302° West  Level Estimated
Sun 07:01:00 AM 58.2682 30.8740 302° West  Level Estimated
Sun 07:02:00 AM 58.3316 30.6749 301° West  Level Estimated
Sun 07:03:00 AM 58.3948 30.4752 301° West  Level Estimated
Sun 07:04:00 AM 58.4577 30.2747 301° West  Level Estimated
Sun 07:05:00 AM 58.5202 30.0734 301° West  Level Estimated
Sun 07:06:00 AM 58.5825 29.8715 301° West  Level Estimated
Sun 07:07:00 AM 58.6444 29.6689 300° West  Level Estimated
Sun 07:08:00 AM 58.7060 29.4655 300° West  Level Estimated
Sun 07:09:00 AM 58.7672 29.2614 300° West  Level Estimated
Sun 07:10:00 AM 58.8282 29.0566 300° West  Level Estimated
Sun 07:11:00 AM 58.8888 28.8511 300° West  Level Estimated
Sun 07:12:00 AM 58.9491 28.6448 300° West  Level Estimated
Sun 07:13:00 AM 59.0091 28.4379 299° West  Level Estimated
Sun 07:14:00 AM 59.0687 28.2302 299° West  Level Estimated
Sun 07:15:00 AM 59.1280 28.0218 299° West  Level Estimated
Sun 07:16:00 AM 59.1870 27.8126 299° West  Level Estimated
Sun 07:17:00 AM 59.2456 27.6028 299° West  Level Estimated
Sun 07:18:00 AM 59.3039 27.3922 299° West  Level Estimated
Sun 07:19:00 AM 59.3619 27.1809 298° West  Level Estimated
Sun 07:20:00 AM 59.4195 26.9689 298° West  Level Estimated
Sun 07:21:00 AM 59.4767 26.7562 298° West  Level Estimated
Sun 07:22:00 AM 59.5336 26.5427 298° West  Level Estimated
Sun 07:23:00 AM 59.5902 26.3286 298° West  Level Estimated
Sun 07:24:00 AM 59.6464 26.1137 297° West  Level Estimated
Sun 07:25:00 AM 59.7023 25.8980 297° West  Level Estimated
Sun 07:26:00 AM 59.7578 25.6817 297° West  Level Estimated
Sun 07:27:00 AM 59.8130 25.4647 297° West  Level Estimated
Sun 07:28:00 AM 59.8677 25.2469 297° West  Level Estimated
Sun 07:28:52 AM 59.9293 26.5130 283° West 459 528 36,000  Level FlightAware ADS-B
Sun 07:29:49 AM 59.9655 26.2906 294° West 456 525 36,000  Level FlightAware ADS-B
Sun 07:30:51 AM 60.0297 26.0643 305° West 453 521 36,000  Level FlightAware ADS-B
Sun 07:31:22 AM 60.0708 25.9623 312° West 453 521 36,000  Level FlightAware ADS-B
Sun 07:31:52 AM 60.1122 25.8790 318° Northwest 452 520 36,000  Level FlightAware ADS-B
Sun 07:32:22 AM 60.1634 25.7933 321° Northwest 453 521 36,000  Level FlightAware ADS-B
Sun 07:33:20 AM 60.2466 25.6143 307° West 451 519 36,000  Level FlightAware ADS-B
Sun 07:33:52 AM 60.2827 25.5046 301° West 450 518 36,000  Level FlightAware ADS-B
Sun 07:34:52 AM 60.3332 25.2766 289° West 454 522 36,000  Level FlightAware ADS-B
Sun 07:35:50 AM 60.3636 25.0403 284° West 454 522 36,000  Level FlightAware ADS-B
Sun 07:36:22 AM 60.3800 24.9080 284° West 455 524 36,000  Level FlightAware ADS-B
Sun 07:37:21 AM 60.4099 24.6615 284° West 453 521 36,000  Level FlightAware ADS-B
Sun 07:37:51 AM 60.4241 24.5433 284° West 453 521 36,000  Level FlightAware ADS-B
Sun 07:38:21 AM 60.4356 24.4469 283° West 452 520 36,000  Level FlightAware ADS-B
Sun 07:39:20 AM 60.4770 24.1791 294° West 452 520 36,000  Level FlightAware ADS-B
Sun 07:39:52 AM 60.5059 24.0627 299° West 452 520 36,000  Level FlightAware ADS-B
Sun 07:40:22 AM 60.5362 23.9524 299° West 453 521 36,000  Level FlightAware ADS-B
Sun 07:41:18 AM 60.5917 23.7438 298° West 452 520 36,000  Level FlightAware ADS-B
Sun 07:41:52 AM 60.6245 23.6182 298° West 452 520 36,000  Level FlightAware ADS-B
Sun 07:42:22 AM 60.6504 23.5187 298° West 450 518 36,000  Level FlightAware ADS-B
Sun 07:43:21 AM 60.7120 23.2802 299° West 449 517 36,000  Level FlightAware ADS-B
Sun 07:43:52 AM 60.7327 23.2223 317° Northwest 445 512 36,000  Level FlightAware ADS-B
Sun 07:44:22 AM 60.7971 23.0955 316° Northwest 448 516 36,000  Level FlightAware ADS-B
Sun 07:45:22 AM 60.8831 22.9239 316° Northwest 446 513 36,000  Level FlightAware ADS-B
Sun 07:45:52 AM 60.9302 22.8296 316° Northwest 446 513 36,000  Level FlightAware ADS-B
Sun 07:46:52 AM 61.0175 22.6541 316° Northwest 444 511 36,000  Level FlightAware ADS-B
Sun 07:47:49 AM 61.1011 22.4842 315° West 441 507 36,000  Level FlightAware ADS-B
Sun 07:49:31 AM 61.2416 22.1949 315° West 442 509 36,000  Level FlightAware ADS-B
Sun 07:50:10 AM 61.3033 22.0668 315° West 441 507 36,000  Level FlightAware ADS-B
Sun 07:50:51 AM 61.3607 21.9468 315° West 439 505 36,000  Level FlightAware ADS-B
Sun 07:51:24 AM 61.3817 21.9030 315° West 439 505 36,000  Level FlightAware ADS-B
Sun 07:53:10 AM 61.5485 21.5501 314° West 438 504 36,000  Level FlightAware ADS-B
Sun 07:54:33 AM 61.6511 21.3301 314° West 440 506 36,000  Level FlightAware ADS-B
Sun 07:55:30 AM 61.7561 21.1032 314° West 439 505 36,000  Level FlightAware ADS-B
Sun 07:56:34 AM 61.8470 20.9044 314° West 439 505 36,000  Level FlightAware ADS-B
Sun 08:06:17 AM 62.7718 18.7728 312° West 440 506 36,000  Level FlightAware ADS-B (OEMA / MED)
Sun 08:06:51 AM 62.8171 18.6628 312° West 439 505 36,000  Level FlightAware ADS-B (OEMA / MED)
Sun 08:07:00 AM 62.3126 18.3655 290° West  Level Estimated
Sun 08:07:25 AM 62.8635 18.5498 312° West 438 504 36,000  Level FlightAware ADS-B (OEMA / MED)
Sun 08:08:32 AM 62.9540 18.3275 312° West 436 502 36,000  Level FlightAware ADS-B (OEMA / MED)
Sun 08:09:00 AM 62.9301 18.1504 290° West  Level Estimated
Sun 08:09:02 AM 62.9939 18.2288 312° West 436 502 36,000  Level FlightAware ADS-B (OEMA / MED)
Sun 08:09:35 AM 63.0373 18.1209 312° West 435 501 36,000  Level FlightAware ADS-B (OEMA / MED)
Sun 08:10:05 AM 63.0775 18.0205 311° West 436 502 36,000 Level FlightAware ADS-B (OEMA / MED)
Sun 08:12:00 AM 63.1560 17.5318 290° West  Level Estimated
Sun 08:13:00 AM 63.1963 17.2757 289° West  Level Estimated
Sun 08:14:00 AM 63.2361 17.0190 289° West  Level Estimated
Sun 08:15:00 AM 63.2754 16.7615 289° West  Level Estimated
Sun 08:16:00 AM 63.3143 16.5033 289° West  Level Estimated
Sun 08:17:00 AM 63.3527 16.2445 288° West  Level Estimated
Sun 08:18:00 AM 63.3907 15.9850 288° West  Level Estimated
Sun 08:19:00 AM 63.4282 15.7247 288° West  Level Estimated
Sun 08:20:00 AM 63.4652 15.4638 288° West  Level Estimated
Sun 08:21:00 AM 63.5017 15.2022 287° West  Level Estimated
Sun 08:22:00 AM 63.5378 14.9400 287° West  Level Estimated
Sun 08:23:00 AM 63.5733 14.6771 287° West  Level Estimated
Sun 08:24:00 AM 63.6084 14.4135 287° West  Level Estimated
Sun 08:25:00 AM 63.6430 14.1493 287° West  Level Estimated
Sun 08:26:00 AM 63.6772 13.8845 286° West  Level Estimated
Sun 08:27:00 AM 63.7108 13.6190 286° West  Level Estimated
Sun 08:28:00 AM 63.7439 13.3529 286° West  Level Estimated
Sun 08:29:00 AM 63.7766 13.0862 286° West  Level Estimated
Sun 08:30:00 AM 63.8088 12.8189 285° West  Level Estimated
Sun 08:31:00 AM 63.8404 12.5509 285° West  Level Estimated
Sun 08:32:00 AM 63.8716 12.2824 285° West  Level Estimated
Sun 08:33:00 AM 63.9022 12.0133 285° West  Level Estimated
Sun 08:34:00 AM 63.9324 11.7435 284° West  Level Estimated
Sun 08:35:00 AM 63.9621 11.4732 284° West  Level Estimated
Sun 08:36:00 AM 63.9912 11.2024 284° West  Level Estimated
Sun 08:37:00 AM 64.0199 10.9310 284° West  Level Estimated
Sun 08:38:00 AM 64.0480 10.6590 283° West  Level Estimated
Sun 08:39:00 AM 64.0757 10.3865 283° West  Level Estimated
Sun 08:40:00 AM 64.1028 10.1134 283° West  Level Estimated
Sun 08:41:00 AM 64.1294 9.8398 283° West  Level Estimated
Sun 08:42:00 AM 64.1555 9.5657 282° West  Level Estimated
Sun 08:43:00 AM 64.1811 9.2911 282° West  Level Estimated
Sun 08:44:00 AM 64.2062 9.0160 282° West  Level Estimated
Sun 08:45:00 AM 64.2307 8.7404 282° West  Level Estimated
Sun 08:46:00 AM 64.2548 8.4643 281° West  Level Estimated
Sun 08:47:00 AM 64.2783 8.1877 281° West  Level Estimated
Sun 08:48:00 AM 64.3012 7.9107 281° West  Level Estimated
Sun 08:49:00 AM 64.3237 7.6332 281° West  Level Estimated
Sun 08:50:00 AM 64.3456 7.3552 280° West  Level Estimated
Sun 08:51:00 AM 64.3671 7.0769 280° West  Level Estimated
Sun 08:52:00 AM 64.3879 6.7980 280° West  Level Estimated
Sun 08:53:00 AM 64.4083 6.5188 280° West  Level Estimated
Sun 08:54:00 AM 64.4281 6.2392 279° West  Level Estimated
Sun 08:55:00 AM 64.4474 5.9592 279° West  Level Estimated
Sun 08:56:00 AM 64.4662 5.6787 279° West  Level Estimated
Sun 08:57:00 AM 64.4844 5.3979 279° West  Level Estimated
Sun 08:58:00 AM 64.5021 5.1168 278° West  Level Estimated
Sun 08:59:00 AM 64.5192 4.8352 278° West  Level Estimated
Sun 09:00:00 AM 64.5358 4.5533 278° West  Level Estimated
Sun 09:01:00 AM 64.5519 4.2711 278° West  Level Estimated
Sun 09:02:00 AM 64.5674 3.9886 277° West  Level Estimated
Sun 09:03:00 AM 64.5824 3.7057 277° West  Level Estimated
Sun 09:04:00 AM 64.5969 3.4226 277° West  Level Estimated
Sun 09:05:00 AM 64.6108 3.1391 277° West  Level Estimated
Sun 09:06:00 AM 64.6241 2.8554 276° West  Level Estimated
Sun 09:07:00 AM 64.6369 2.5713 276° West  Level Estimated
Sun 09:08:00 AM 64.6492 2.2871 276° West  Level Estimated
Sun 09:09:00 AM 64.6609 2.0025 276° West  Level Estimated
Sun 09:10:00 AM 64.6721 1.7177 275° West  Level Estimated
Sun 09:11:00 AM 64.6827 1.4327 275° West  Level Estimated
Sun 09:12:00 AM 64.6928 1.1475 275° West  Level Estimated
Sun 09:13:00 AM 64.7024 0.8621 275° West  Level Estimated
Sun 09:14:00 AM 64.7113 0.5765 274° West  Level Estimated
Sun 09:15:00 AM 64.7198 0.2907 274° West  Level Estimated
Sun 09:16:00 AM 64.7277 0.0047 274° West  Level Estimated
Sun 09:17:00 AM 64.7350 -0.2815 274° West  Level Estimated
Sun 09:18:00 AM 64.7418 -0.5677 273° West  Level Estimated
Sun 09:19:00 AM 64.7480 -0.8542 273° West  Level Estimated
Sun 09:20:00 AM 64.7537 -1.1407 273° West  Level Estimated
Sun 09:21:00 AM 64.7588 -1.4274 273° West  Level Estimated
Sun 09:22:00 AM 64.7634 -1.7142 272° West  Level Estimated
Sun 09:23:00 AM 64.7674 -2.0010 272° West  Level Estimated
Sun 09:24:00 AM 64.7708 -2.2880 272° West  Level Estimated
Sun 09:25:00 AM 64.7737 -2.5750 271° West  Level Estimated
Sun 09:26:00 AM 64.7761 -2.8620 271° West  Level Estimated
Sun 09:27:00 AM 64.7779 -3.1491 271° West  Level Estimated
Sun 09:28:00 AM 64.7791 -3.4363 271° West  Level Estimated
Sun 09:29:00 AM 64.7798 -3.7234 270° West  Level Estimated
Sun 09:30:00 AM 64.7800 -4.0106 270° West  Level Estimated
Sun 09:31:00 AM 64.7795 -4.2978 270° West  Level Estimated
Sun 09:32:00 AM 64.7785 -4.5849 270° West  Level Estimated
Sun 09:33:00 AM 64.7770 -4.8721 269° West  Level Estimated
Sun 09:34:00 AM 64.7749 -5.1592 269° West  Level Estimated
Sun 09:35:00 AM 64.7723 -5.4462 269° West  Level Estimated
Sun 09:36:00 AM 64.7691 -5.7332 269° West  Level Estimated
Sun 09:37:00 AM 64.7654 -6.0201 268° West  Level Estimated
Sun 09:38:00 AM 64.7610 -6.3069 268° West  Level Estimated
Sun 09:39:00 AM 64.7562 -6.5936 268° West  Level Estimated
Sun 09:40:00 AM 64.7508 -6.8802 268° West  Level Estimated
Sun 09:41:00 AM 64.7448 -7.1667 267° West  Level Estimated
Sun 09:42:00 AM 64.7383 -7.4531 267° West  Level Estimated
Sun 09:43:00 AM 64.7312 -7.7393 267° West  Level Estimated
Sun 09:44:00 AM 64.7236 -8.0253 267° West  Level Estimated
Sun 09:45:00 AM 64.7154 -8.3112 266° West  Level Estimated
Sun 09:46:00 AM 64.7067 -8.5969 266° West  Level Estimated
Sun 09:47:00 AM 64.6974 -8.8825 266° West  Level Estimated
Sun 09:48:00 AM 64.6876 -9.1678 266° West  Level Estimated
Sun 09:49:00 AM 64.6773 -9.4529 265° West  Level Estimated
Sun 09:50:00 AM 64.6663 -9.7378 265° West  Level Estimated
Sun 09:51:00 AM 64.6549 -10.0224 265° West  Level Estimated
Sun 09:52:00 AM 64.6429 -10.3068 264° West  Level Estimated
Sun 09:53:00 AM 64.6303 -10.5910 264° West  Level Estimated
Sun 09:54:00 AM 64.6172 -10.8748 264° West  Level Estimated
Sun 09:55:00 AM 64.6036 -11.1584 264° West  Level Estimated
Sun 09:56:00 AM 64.5894 -11.4417 263° West  Level Estimated
Sun 09:57:00 AM 64.5746 -11.7247 263° West  Level Estimated
Sun 09:58:00 AM 64.5594 -12.0075 263° West  Level Estimated
Sun 09:59:00 AM 64.5435 -12.2898 263° West  Level Estimated
Sun 10:00:00 AM 64.5272 -12.5719 262° West  Level Estimated
Sun 10:01:00 AM 64.5103 -12.8536 262° West  Level Estimated
Sun 10:02:00 AM 64.4929 -13.1349 262° West  Level Estimated
Sun 10:03:00 AM 64.4749 -13.4159 262° West  Level Estimated
Sun 10:04:00 AM 64.4564 -13.6965 261° West  Level Estimated
Sun 10:05:00 AM 64.4374 -13.9767 261° West  Level Estimated
Sun 10:06:00 AM 64.4178 -14.2565 261° West  Level Estimated
Sun 10:07:00 AM 64.3977 -14.5360 261° West  Level Estimated
Sun 10:08:00 AM 64.3771 -14.8150 260° West  Level Estimated
Sun 10:09:00 AM 64.3559 -15.0936 260° West  Level Estimated
Sun 10:10:00 AM 64.3342 -15.3717 260° West  Level Estimated
Sun 10:11:00 AM 64.3120 -15.6494 260° West  Level Estimated
Sun 10:12:00 AM 64.2893 -15.9267 259° West  Level Estimated
Sun 10:13:00 AM 64.2660 -16.2035 259° West  Level Estimated
Sun 10:14:00 AM 64.2422 -16.4798 259° West  Level Estimated
Sun 10:15:00 AM 64.2179 -16.7556 259° West  Level Estimated
Sun 10:16:00 AM 64.1931 -17.0310 258° West  Level Estimated
Sun 10:17:00 AM 64.1678 -17.3058 258° West  Level Estimated
Sun 10:18:00 AM 64.1419 -17.5802 258° West  Level Estimated
Sun 10:19:00 AM 64.1155 -17.8540 258° West  Level Estimated
Sun 10:20:00 AM 64.0887 -18.1273 257° West  Level Estimated
Sun 10:21:00 AM 64.0613 -18.4001 257° West  Level Estimated
Sun 10:22:00 AM 64.0334 -18.6723 257° West  Level Estimated
Sun 10:23:00 AM 64.0050 -18.9440 257° West  Level Estimated
Sun 10:24:00 AM 63.9760 -19.2152 256° West  Level Estimated
Sun 10:25:00 AM 63.9466 -19.4857 256° West  Level Estimated
Sun 10:26:00 AM 63.9167 -19.7557 256° West  Level Estimated
Sun 10:27:00 AM 63.8862 -20.0251 256° West  Level Estimated
Sun 10:28:00 AM 63.8553 -20.2939 255° West  Level Estimated
Sun 10:29:00 AM 63.8239 -20.5622 255° West  Level Estimated
Sun 10:30:00 AM 63.7920 -20.8298 255° West  Level Estimated
Sun 10:31:00 AM 63.7595 -21.0968 255° West  Level Estimated
Sun 10:32:00 AM 63.7266 -21.3632 255° West  Level Estimated
Sun 10:33:00 AM 63.6932 -21.6290 254° West  Level Estimated
Sun 10:34:00 AM 63.6594 -21.8941 254° West  Level Estimated
Sun 10:35:00 AM 63.6250 -22.1586 254° West  Level Estimated
Sun 10:36:00 AM 63.5901 -22.4225 254° West  Level Estimated
Sun 10:37:00 AM 63.5548 -22.6857 253° West  Level Estimated
Sun 10:38:00 AM 63.5190 -22.9483 253° West  Level Estimated
Sun 10:39:00 AM 63.4827 -23.2102 253° West  Level Estimated
Sun 10:40:00 AM 63.4459 -23.4714 253° West  Level Estimated
Sun 10:41:00 AM 63.4086 -23.7319 252° West  Level Estimated
Sun 10:42:00 AM 63.3709 -23.9918 252° West  Level Estimated
Sun 10:43:00 AM 63.3327 -24.2510 252° West  Level Estimated
Sun 10:44:00 AM 63.2940 -24.5095 252° West  Level Estimated
Sun 10:45:00 AM 63.2549 -24.7673 251° West  Level Estimated
Sun 10:46:00 AM 63.2153 -25.0244 251° West  Level Estimated
Sun 10:47:00 AM 63.1752 -25.2808 251° West  Level Estimated
Sun 10:48:00 AM 63.1347 -25.5364 251° West  Level Estimated
Sun 10:49:00 AM 63.0937 -25.7914 251° West  Level Estimated
Sun 10:50:00 AM 63.0523 -26.0456 250° West  Level Estimated
Sun 10:51:00 AM 63.0104 -26.2992 250° West  Level Estimated
Sun 10:52:00 AM 62.9680 -26.5519 250° West  Level Estimated
Sun 10:53:00 AM 62.9253 -26.8040 250° West  Level Estimated
Sun 10:54:00 AM 62.8820 -27.0553 249° West  Level Estimated
Sun 10:55:00 AM 62.8383 -27.3058 249° West  Level Estimated
Sun 10:56:00 AM 62.7942 -27.5557 249° West  Level Estimated
Sun 10:57:00 AM 62.7496 -27.8047 249° West  Level Estimated
Sun 10:58:00 AM 62.7046 -28.0530 249° West  Level Estimated
Sun 10:59:00 AM 62.6591 -28.3006 248° West  Level Estimated
Sun 11:00:00 AM 62.6133 -28.5474 248° West  Level Estimated
Sun 11:01:00 AM 62.5670 -28.7934 248° West  Level Estimated
Sun 11:02:00 AM 62.5202 -29.0386 248° West  Level Estimated
Sun 11:03:00 AM 62.4730 -29.2831 247° West  Level Estimated
Sun 11:04:00 AM 62.4254 -29.5268 247° West  Level Estimated
Sun 11:05:00 AM 62.3774 -29.7698 247° West  Level Estimated
Sun 11:06:00 AM 62.3289 -30.0119 247° West  Level Estimated
Sun 11:07:00 AM 62.2801 -30.2533 247° West  Level Estimated
Sun 11:08:00 AM 62.2308 -30.4939 246° West  Level Estimated
Sun 11:09:00 AM 62.1811 -30.7336 246° West  Level Estimated
Sun 11:10:00 AM 62.1310 -30.9726 246° West  Level Estimated
Sun 11:11:00 AM 62.0804 -31.2108 246° West  Level Estimated
Sun 11:12:00 AM 62.0295 -31.4483 246° West  Level Estimated
Sun 11:13:00 AM 61.9782 -31.6849 245° Southwest  Level Estimated
Sun 11:14:00 AM 61.9264 -31.9207 245° Southwest  Level Estimated
Sun 11:15:00 AM 61.8743 -32.1557 245° Southwest  Level Estimated
Sun 11:16:00 AM 61.8217 -32.3899 245° Southwest  Level Estimated
Sun 11:17:00 AM 61.7688 -32.6233 244° Southwest  Level Estimated
Sun 11:18:00 AM 61.7155 -32.8560 244° Southwest  Level Estimated
Sun 11:19:00 AM 61.6617 -33.0878 244° Southwest  Level Estimated
Sun 11:20:00 AM 61.6076 -33.3187 244° Southwest  Level Estimated
Sun 11:21:00 AM 61.5531 -33.5489 244° Southwest  Level Estimated
Sun 11:22:00 AM 61.4982 -33.7783 243° Southwest  Level Estimated
Sun 11:23:00 AM 61.4429 -34.0069 243° Southwest  Level Estimated
Sun 11:24:00 AM 61.3873 -34.2346 243° Southwest  Level Estimated
Sun 11:25:00 AM 61.3312 -34.4616 243° Southwest  Level Estimated
Sun 11:26:00 AM 61.2748 -34.6877 243° Southwest  Level Estimated
Sun 11:27:00 AM 61.2180 -34.9130 242° Southwest  Level Estimated
Sun 11:28:00 AM 61.1609 -35.1375 242° Southwest  Level Estimated
Sun 11:29:00 AM 61.1033 -35.3612 242° Southwest  Level Estimated
Sun 11:30:00 AM 61.0454 -35.5841 242° Southwest  Level Estimated
Sun 11:31:00 AM 60.9752 -35.7908 235° Southwest  Level FlightAware Approximate
Sun 11:32:00 AM 60.9046 -35.9966 235° Southwest  Level FlightAware Approximate
Sun 11:33:00 AM 60.8337 -36.2014 235° Southwest  Level FlightAware Approximate
Sun 11:34:00 AM 60.7625 -36.4054 235° Southwest  Level FlightAware Approximate
Sun 11:35:00 AM 60.6910 -36.6085 234° Southwest  Level FlightAware Approximate
Sun 11:36:00 AM 60.6192 -36.8106 234° Southwest  Level FlightAware Approximate
Sun 11:37:00 AM 60.5471 -37.0119 234° Southwest  Level FlightAware Approximate
Sun 11:38:00 AM 60.4866 -37.2281 243° Southwest  Level Estimated
Sun 11:39:00 AM 60.4300 -37.4480 243° Southwest  Level FlightAware Approximate
Sun 11:40:00 AM 60.3729 -37.6672 242° Southwest  Level FlightAware Approximate
Sun 11:41:00 AM 60.3155 -37.8856 242° Southwest  Level FlightAware Approximate
Sun 11:42:00 AM 60.2578 -38.1032 242° Southwest  Level FlightAware Approximate
Sun 11:43:00 AM 60.1996 -38.3201 242° Southwest  Level FlightAware Approximate
Sun 11:44:00 AM 60.1412 -38.5362 242° Southwest  Level FlightAware Approximate
Sun 11:45:00 AM 60.0824 -38.7515 241° Southwest  Level FlightAware Approximate
Sun 11:46:00 AM 60.0232 -38.9661 241° Southwest  Level FlightAware Approximate
Sun 11:47:00 AM 59.9637 -39.1799 241° Southwest  Level FlightAware Approximate
Sun 11:48:00 AM 59.9038 -39.3929 241° Southwest  Level FlightAware Approximate
Sun 11:49:00 AM 59.8436 -39.6051 241° Southwest  Level FlightAware Approximate
Sun 11:50:00 AM 59.7831 -39.8166 240° Southwest  Level FlightAware Approximate
Sun 11:51:00 AM 59.7222 -40.0273 240° Southwest  Level FlightAware Approximate
Sun 11:52:00 AM 59.6610 -40.2373 240° Southwest  Level FlightAware Approximate
Sun 11:53:00 AM 59.5994 -40.4464 240° Southwest  Level FlightAware Approximate
Sun 11:54:00 AM 59.5376 -40.6549 240° Southwest  Level FlightAware Approximate
Sun 11:55:00 AM 59.4753 -40.8625 240° Southwest  Level FlightAware Approximate
Sun 11:56:00 AM 59.4128 -41.0694 239° Southwest  Level FlightAware Approximate
Sun 11:57:00 AM 59.3499 -41.2755 239° Southwest  Level FlightAware Approximate
Sun 11:57:08 AM 63.5333 -45.4000 238° Southwest 510 587 37,000  Level Gander Center
Sun 11:58:00 AM 59.2868 -41.4809 239° Southwest  Level FlightAware Approximate
Sun 11:58:08 AM 63.4500 -45.6667 235° Southwest 510 587 37,000  Level Gander Center
Sun 11:59:00 AM 59.2233 -41.6854 239° Southwest  Level FlightAware Approximate
Sun 11:59:08 AM 63.3667 -45.9000 232° Southwest 510 587 37,000  Level Gander Center
Sun 12:00:00 PM 59.1594 -41.8893 239° Southwest  Level FlightAware Approximate
Sun 12:00:08 PM 63.2833 -46.1667 235° Southwest 510 587 37,000  Level Gander Center
Sun 12:01:00 PM 59.0953 -42.0923 238° Southwest  Level FlightAware Approximate
Sun 12:01:08 PM 63.2167 -46.4333 241° Southwest 510 587 37,000  Level Gander Center
Sun 12:02:00 PM 59.0308 -42.2946 238° Southwest  Level FlightAware Approximate
Sun 12:02:08 PM 63.1167 -46.6667 227° Southwest 510 587 37,000  Level Gander Center
Sun 12:03:00 PM 58.9660 -42.4962 238° Southwest  Level FlightAware Approximate
Sun 12:03:08 PM 63.0500 -46.9167 240° Southwest 510 587 37,000  Level Gander Center
Sun 12:04:08 PM 62.9667 -47.1833 236° Southwest 500 575 37,000  Level Gander Center
Sun 12:05:08 PM 62.8833 -47.4000 230° Southwest 500 575 37,000  Level Gander Center
Sun 12:06:08 PM 62.8167 -47.6500 240° Southwest 500 575 37,000  Level Gander Center
Sun 12:07:08 PM 62.7167 -47.9167 231° Southwest 500 575 37,000  Level Gander Center
Sun 12:08:08 PM 62.6333 -48.1333 230° Southwest 510 587 37,000  Level Gander Center
Sun 12:10:08 PM 62.4833 -48.6333 237° Southwest 510 587 37,000  Level Gander Center
Sun 12:11:08 PM 62.4000 -48.8500 230° Southwest 500 575 37,000  Level Gander Center
Sun 12:12:08 PM 62.3000 -49.1000 229° Southwest 500 575 37,000  Level Gander Center
Sun 12:13:08 PM 62.2167 -49.3500 235° Southwest 500 575 37,000  Level Gander Center
Sun 12:14:08 PM 62.1333 -49.5667 231° Southwest 510 587 37,000  Level Gander Center
Sun 12:15:08 PM 62.0333 -49.8167 230° Southwest 510 587 37,000  Level Gander Center
Sun 12:16:08 PM 61.9500 -50.0667 235° Southwest 510 587 37,000  Level Gander Center
Sun 12:17:08 PM 61.8833 -50.3000 239° Southwest 510 587 37,000  Level Gander Center
Sun 12:18:15 PM 61.7667 -50.5167 221° Southwest 500 575 37,000  Level Gander Center
Sun 12:19:15 PM 61.6833 -50.7667 235° Southwest 500 575 37,000  Level Gander Center
Sun 12:20:15 PM 61.5833 -50.9667 224° Southwest 500 575 37,000  Level Gander Center
Sun 12:21:08 PM 61.5167 -51.1667 235° Southwest 490 564 37,000  Level Gander Center
Sun 12:22:08 PM 61.4167 -51.4000 228° Southwest 500 575 37,000  Level Gander Center
Sun 12:23:08 PM 61.3333 -51.6000 229° Southwest 500 575 37,000  Level Gander Center
Sun 12:24:08 PM 61.2500 -51.8333 233° Southwest 500 575 37,000  Level Gander Center
Sun 12:25:15 PM 61.1500 -52.0667 228° Southwest 500 575 37,000  Level Gander Center
Sun 12:26:15 PM 61.0667 -52.2667 229° Southwest 500 575 37,000  Level Gander Center
Sun 12:27:08 PM 60.9667 -52.4667 224° Southwest 500 575 37,000  Level Gander Center
Sun 12:28:08 PM 60.8833 -52.7000 234° Southwest 500 575 37,000  Level Gander Center
Sun 12:29:08 PM 60.7833 -52.9000 224° Southwest 500 575 37,000  Level Gander Center
Sun 12:30:08 PM 60.7000 -53.1167 232° Southwest 500 575 37,000  Level Gander Center
Sun 12:31:15 PM 60.6000 -53.3500 229° Southwest 500 575 37,000  Level Gander Center
Sun 12:32:15 PM 60.5000 -53.5333 222° Southwest 490 564 37,000  Level Gander Center
Sun 12:33:15 PM 60.4167 -53.7333 230° Southwest 490 564 37,000  Level Gander Center
Sun 12:34:15 PM 60.3167 -53.9500 227° Southwest 490 564 37,000  Level Gander Center
Sun 12:35:15 PM 60.2333 -54.1333 228° Southwest 490 564 37,000  Level Gander Center
Sun 12:36:15 PM 60.1500 -54.3667 234° Southwest 480 552 37,000  Level Gander Center
Sun 12:37:15 PM 60.0500 -54.5500 223° Southwest 470 541 37,000  Level Gander Center
Sun 12:38:15 PM 59.9667 -54.7333 228° Southwest 470 541 37,000  Level Gander Center
Sun 12:40:08 PM 59.8000 -55.1000 228° Southwest 470 541 37,000  Level Gander Center
Sun 12:41:08 PM 59.7000 -55.2667 220° Southwest 470 541 37,000  Level Gander Center
Sun 12:42:15 PM 59.6000 -55.4833 228° Southwest 480 552 37,000  Level Gander Center
Sun 12:43:15 PM 59.5000 -55.6667 223° Southwest 480 552 37,000  Level Gander Center
Sun 12:44:15 PM 59.4167 -55.8500 228° Southwest 470 541 37,000  Level Gander Center
Sun 12:45:15 PM 59.3167 -56.0333 223° Southwest 470 541 37,000  Level Gander Center
Sun 12:46:15 PM 59.2500 -56.2333 237° Southwest 470 541 37,000  Level Gander Center
Sun 12:47:15 PM 59.1500 -56.4167 223° Southwest 470 541 37,000  Level Gander Center
Sun 12:48:15 PM 59.0500 -56.5833 221° Southwest 460 529 37,000  Level Gander Center
Sun 12:49:15 PM 58.9667 -56.7667 229° Southwest 460 529 37,000  Level Gander Center
Sun 12:50:08 PM 58.8833 -56.9000 220° Southwest 460 529 37,000  Level Gander Center
Sun 12:51:08 PM 58.8000 -57.0667 226° Southwest 460 529 37,000  Level Gander Center
Sun 12:52:08 PM 58.7167 -57.2333 226° Southwest 460 529 37,000  Level Gander Center
Sun 12:53:08 PM 58.6000 -57.3833 214° Southwest 460 529 37,000  Level Gander Center
Sun 12:54:08 PM 58.5000 -57.5167 215° Southwest 460 529 37,000  Level Gander Center
Sun 12:55:08 PM 58.3833 -57.6333 208° Southwest 450 518 37,000  Level Gander Center
Sun 12:56:08 PM 58.2833 -57.7667 215° Southwest 450 518 37,000  Level Gander Center
Sun 12:57:08 PM 58.1833 -57.9000 215° Southwest 450 518 37,000  Level Gander Center
Sun 12:58:08 PM 58.0833 -58.0333 215° Southwest 450 518 37,000  Level Gander Center
Sun 12:59:08 PM 57.9667 -58.1333 204° Southwest 450 518 37,000  Level Gander Center
Sun 01:00:15 PM 57.8500 -58.3000 217° Southwest 450 518 37,000  Level Gander Center
Sun 01:01:15 PM 57.7333 -58.4000 205° Southwest 450 518 37,000  Level Gander Center
Sun 01:02:15 PM 57.6333 -58.5333 216° Southwest 440 506 37,000  Level Gander Center
Sun 01:03:15 PM 57.5667 -58.6333 219° Southwest 440 506 37,000  Level Gander Center
Sun 01:04:15 PM 57.4500 -58.7667 212° Southwest 440 506 37,000  Level Gander Center
Sun 01:05:15 PM 57.3333 -58.9000 212° Southwest 430 495 37,000 200 Level Gander Center
Sun 01:06:15 PM 57.2167 -59.0333 212° Southwest 460 529 37,400 500 Climbing Gander Center
Sun 01:07:15 PM 57.1167 -59.1333 209° Southwest 450 518 38,000 364 Climbing Gander Center
Sun 01:07:54 PM 57.0500 -59.2333 219° Southwest 430 495 38,000  Level Gander Center
Sun 01:08:54 PM 56.9500 -59.3167 204° Southwest 430 495 38,000  Level Gander Center
Sun 01:09:54 PM 56.8500 -59.4500 216° Southwest 430 495 38,000  Level Gander Center
Sun 01:10:54 PM 56.7333 -59.5833 212° Southwest 430 495 38,000  Level Gander Center
Sun 01:11:54 PM 56.6500 -59.6667 209° Southwest 430 495 38,000  Level Gander Center
Sun 01:12:54 PM 56.5500 -59.8000 216° Southwest 430 495 38,000  Level Gander Center
Sun 01:13:54 PM 56.4500 -59.9000 209° Southwest 430 495 38,000  Level Gander Center
Sun 01:15:57 PM 56.2167 -60.1333 209° Southwest 430 495 38,000  Level Moncton Center
Sun 01:16:57 PM 56.1333 -60.2333 214° Southwest 420 483 38,000  Level Moncton Center
Sun 01:17:57 PM 56.0333 -60.3333 209° Southwest 430 495 38,000  Level Moncton Center
Sun 01:18:57 PM 55.9333 -60.4333 209° Southwest 420 483 38,000  Level Moncton Center
Sun 01:19:57 PM 55.8333 -60.5667 217° Southwest 420 483 38,000  Level Moncton Center
Sun 01:20:57 PM 55.7167 -60.6667 206° Southwest 420 483 38,000  Level Moncton Center
Sun 01:21:57 PM 55.6167 -60.7667 209° Southwest 420 483 38,000  Level Moncton Center
Sun 01:22:57 PM 55.5333 -60.8667 214° Southwest 420 483 38,000  Level Moncton Center
Sun 01:23:57 PM 55.4333 -60.9500 205° Southwest 420 483 38,000  Level Moncton Center
Sun 01:24:57 PM 55.3167 -61.0833 213° Southwest 420 483 38,000  Level Moncton Center
Sun 01:25:57 PM 55.2167 -61.1833 210° Southwest 420 483 38,000  Level Moncton Center
Sun 01:26:57 PM 55.1167 -61.2667 205° Southwest 410 472 38,000  Level Moncton Center
Sun 01:27:57 PM 55.0167 -61.3667 210° Southwest 410 472 38,000  Level Moncton Center
Sun 01:28:57 PM 54.9333 -61.4667 215° Southwest 410 472 38,000  Level Moncton Center
Sun 01:29:57 PM 54.8333 -61.5833 214° Southwest 410 472 38,000  Level Moncton Center
Sun 01:30:57 PM 54.7333 -61.6833 210° Southwest 410 472 38,000  Level Moncton Center
Sun 01:31:57 PM 54.6333 -61.7667 206° Southwest 400 460 38,000  Level Moncton Center
Sun 01:32:57 PM 54.5333 -61.8667 210° Southwest 400 460 38,000  Level Moncton Center
Sun 01:33:57 PM 54.4333 -61.9500 206° Southwest 400 460 38,000  Level Moncton Center
Sun 01:34:57 PM 54.3333 -62.0500 210° Southwest 400 460 38,000  Level Moncton Center
Sun 01:35:57 PM 54.2333 -62.1333 206° Southwest 400 460 38,000  Level Moncton Center
Sun 01:36:57 PM 54.1500 -62.2333 215° Southwest 400 460 38,000  Level Moncton Center
Sun 01:37:57 PM 54.0333 -62.3167 203° Southwest 400 460 38,000  Level Moncton Center
Sun 01:38:57 PM 53.9500 -62.4167 215° Southwest 400 460 38,000  Level Moncton Center
Sun 01:39:57 PM 53.8667 -62.5000 211° Southwest 400 460 38,000  Level Moncton Center
Sun 01:40:57 PM 53.7667 -62.5833 206° Southwest 400 460 38,000  Level Moncton Center
Sun 01:41:57 PM 53.6667 -62.6833 211° Southwest 400 460 38,000  Level Moncton Center
Sun 01:42:57 PM 53.5667 -62.7667 206° Southwest 400 460 38,000  Level Moncton Center
Sun 01:43:57 PM 53.4667 -62.8500 206° Southwest 400 460 38,000  Level Moncton Center
Sun 01:44:57 PM 53.3667 -62.9667 215° Southwest 400 460 38,000  Level Moncton Center
Sun 01:45:57 PM 53.2833 -63.0500 211° Southwest 400 460 38,000  Level Moncton Center
Sun 01:46:57 PM 53.1667 -63.1500 207° Southwest 400 460 38,000  Level Moncton Center
Sun 01:47:57 PM 53.0833 -63.2333 211° Southwest 400 460 38,000  Level Moncton Center
Sun 01:48:57 PM 52.9833 -63.3167 207° Southwest 390 449 38,000  Level Moncton Center
Sun 01:49:57 PM 52.8833 -63.4000 207° Southwest 390 449 38,000  Level Moncton Center
Sun 01:51:15 PM 52.7500 -63.5167 208° Southwest 390 449 38,000  Level Gander Center
Sun 01:52:15 PM 52.6500 -63.6000 207° Southwest 390 449 38,000  Level Gander Center
Sun 01:52:57 PM 52.6000 -63.6500 211° Southwest 390 449 38,000  Level Moncton Center
Sun 01:53:57 PM 52.5000 -63.7333 207° Southwest 390 449 38,000  Level Moncton Center
Sun 01:54:57 PM 52.4000 -63.8167 207° Southwest 390 449 38,000  Level Moncton Center
Sun 01:55:57 PM 52.3000 -63.9000 207° Southwest 390 449 38,000  Level Moncton Center
Sun 01:56:57 PM 52.2167 -63.9833 212° Southwest 390 449 38,000  Level Moncton Center
Sun 01:57:57 PM 52.1167 -64.0667 207° Southwest 390 449 38,000  Level Moncton Center
Sun 01:58:57 PM 52.0167 -64.1500 207° Southwest 390 449 38,000  Level Moncton Center
Sun 01:59:57 PM 51.9167 -64.2333 207° Southwest 390 449 38,000  Level Moncton Center
Sun 02:00:57 PM 51.8167 -64.3167 207° Southwest 390 449 38,000  Level Moncton Center
Sun 02:01:57 PM 51.7167 -64.4000 207° Southwest 390 449 38,000  Level Moncton Center
Sun 02:02:57 PM 51.6333 -64.4833 212° Southwest 390 449 38,000  Level Moncton Center
Sun 02:03:57 PM 51.5333 -64.5667 207° Southwest 390 449 38,000  Level Moncton Center
Sun 02:04:57 PM 51.4333 -64.6333 203° Southwest 390 449 38,000  Level Moncton Center
Sun 02:05:57 PM 51.3333 -64.7167 208° Southwest 400 460 38,000  Level Moncton Center
Sun 02:06:57 PM 51.2333 -64.8000 208° Southwest 400 460 38,000  Level Moncton Center
Sun 02:07:57 PM 51.1500 -64.8833 212° Southwest 400 460 38,000  Level Moncton Center
Sun 02:08:57 PM 51.0333 -64.9500 200° South 400 460 38,000  Level Moncton Center
Sun 02:09:57 PM 50.9500 -65.0333 212° Southwest 400 460 38,000  Level Moncton Center
Sun 02:10:57 PM 50.8500 -65.1167 208° Southwest 400 460 38,000  Level Moncton Center
Sun 02:11:57 PM 50.7500 -65.1833 203° Southwest 400 460 38,000  Level Moncton Center
Sun 02:12:57 PM 50.6500 -65.2667 208° Southwest 410 472 38,000  Level Moncton Center
Sun 02:13:57 PM 50.5500 -65.3500 208° Southwest 400 460 38,000  Level Moncton Center
Sun 02:14:57 PM 50.4333 -65.4500 209° Southwest 410 472 38,000  Level Moncton Center
Sun 02:15:57 PM 50.3167 -65.5167 200° South 410 472 38,000  Level Moncton Center
Sun 02:16:57 PM 50.2333 -65.6000 213° Southwest 410 472 38,000  Level Moncton Center
Sun 02:17:57 PM 50.1167 -65.6833 205° Southwest 410 472 38,000  Level Moncton Center
Sun 02:18:57 PM 50.0167 -65.7500 203° Southwest 410 472 38,000  Level Moncton Center
Sun 02:19:57 PM 49.9333 -65.8333 213° Southwest 400 460 38,000  Level Moncton Center
Sun 02:20:57 PM 49.8167 -65.9000 200° South 400 460 38,000  Level Moncton Center
Sun 02:21:57 PM 49.7333 -65.9833 213° Southwest 410 472 38,000  Level Moncton Center
Sun 02:22:57 PM 49.6167 -66.0833 209° Southwest 410 472 38,000  Level Moncton Center
Sun 02:23:57 PM 49.5167 -66.1500 203° Southwest 410 472 38,000  Level Moncton Center
Sun 02:24:57 PM 49.4167 -66.2167 203° Southwest 410 472 38,000  Level Moncton Center
Sun 02:25:57 PM 49.3000 -66.3000 205° Southwest 410 472 38,000  Level Moncton Center
Sun 02:26:57 PM 49.2000 -66.3667 204° Southwest 410 472 38,000  Level Moncton Center
Sun 02:27:57 PM 49.1000 -66.4500 209° Southwest 420 483 38,000  Level Moncton Center
Sun 02:28:57 PM 49.0000 -66.5333 209° Southwest 420 483 38,000  Level Moncton Center
Sun 02:29:57 PM 48.8833 -66.6167 205° Southwest 420 483 38,000  Level Moncton Center
Sun 02:30:57 PM 48.7833 -66.6833 204° Southwest 420 483 38,000  Level Moncton Center
Sun 02:31:57 PM 48.6833 -66.7500 204° Southwest 430 495 38,000  Level Moncton Center
Sun 02:32:57 PM 48.5833 -66.8500 213° Southwest 430 495 38,000  Level Moncton Center
Sun 02:38:03 PM 48.0184 -67.2436 205° Southwest 443 510 38,000  Level FlightAware ADS-B
Sun 02:38:42 PM 47.9460 -67.2943 205° Southwest 446 513 38,000  Level FlightAware ADS-B
Sun 02:41:27 PM 47.6404 -67.5069 205° Southwest 457 526 38,000  Level FlightAware ADS-B
Sun 02:42:00 PM 47.5701 -67.5554 205° Southwest 460 529 38,000  Level FlightAware ADS-B
Sun 02:42:52 PM 47.4688 -67.6251 205° Southwest 463 533 38,000  Level FlightAware ADS-B
Sun 02:43:26 PM 47.4248 -67.6552 205° Southwest 464 534 38,000  Level FlightAware ADS-B
Sun 02:43:56 PM 47.3446 -67.7100 205° Southwest 465 535 38,000  Level FlightAware ADS-B
Sun 02:44:45 PM 47.2499 -67.7745 205° Southwest 467 537 38,000  Level FlightAware ADS-B
Sun 02:45:24 PM 47.1872 -67.8170 205° Southwest 468 539 38,000  Level FlightAware ADS-B
Sun 02:45:58 PM 47.1104 -67.8690 205° Southwest 471 542 38,000  Level FlightAware ADS-B
Sun 02:46:53 PM 46.9971 -67.9454 205° Southwest 477 549 38,000  Level FlightAware ADS-B
Sun 02:47:27 PM 46.9305 -67.9902 205° Southwest 477 549 38,000  Level FlightAware ADS-B
Sun 02:47:58 PM 46.9100 -68.0039 205° Southwest 476 548 38,000  Level FlightAware ADS-B (KBGR)
Sun 02:48:41 PM 46.7914 -68.0821 200° South 477 549 38,000  Level FlightAware ADS-B
Sun 02:49:35 PM 46.6649 -68.1379 197° South 481 554 38,000  Level FlightAware ADS-B (KBGR)
Sun 02:50:05 PM 46.6016 -68.1660 197° South 481 554 38,000  Level FlightAware ADS-B (KBGR)
Sun 02:50:40 PM 46.5272 -68.1975 196° South 483 556 38,000  Level FlightAware ADS-B
Sun 02:51:19 PM 46.4441 -68.2320 196° South 482 555 38,000  Level FlightAware ADS-B
Sun 02:51:51 PM 46.3749 -68.2605 196° South 484 557 38,000  Level FlightAware ADS-B (KBGR)
Sun 02:52:22 PM 46.3137 -68.2857 196° South 487 560 38,000  Level FlightAware ADS-B (KBGR)
Sun 02:52:56 PM 46.2337 -68.3185 196° South 489 563 38,000  Level FlightAware ADS-B
Sun 02:53:26 PM 46.1692 -68.3447 196° South 490 564 38,000  Level FlightAware ADS-B
Sun 02:54:03 PM 46.0872 -68.3782 196° South 492 566 38,000  Level FlightAware ADS-B
Sun 02:54:38 PM 46.0104 -68.4095 196° South 493 567 38,000  Level FlightAware ADS-B (KBGR)
Sun 02:55:09 PM 45.9483 -68.4348 196° South 494 568 38,000  Level FlightAware ADS-B (KBGR)
Sun 02:55:54 PM 45.8460 -68.4762 196° South 496 571 38,000  Level FlightAware ADS-B (KBGR)
Sun 02:56:24 PM 45.7792 -68.5031 196° South 497 572 38,000  Level FlightAware ADS-B (KBGR)
Sun 02:56:57 PM 45.7062 -68.5324 196° South 496 571 38,000  Level FlightAware ADS-B (KBGR)
Sun 02:57:28 PM 45.6380 -68.5598 196° South 496 571 38,000  Level FlightAware ADS-B (KBGR)
Sun 02:58:02 PM 45.5630 -68.5898 196° South 499 574 38,000  Level FlightAware ADS-B
Sun 02:58:32 PM 45.4963 -68.6164 196° South 500 575 38,000  Level FlightAware ADS-B
Sun 02:59:03 PM 45.4270 -68.6440 196° South 501 577 38,000  Level FlightAware ADS-B (YSBK / BWU)
Sun 02:59:38 PM 45.3600 -68.6706 196° South 499 574 38,000  Level FlightAware ADS-B
Sun 03:00:08 PM 45.2865 -68.6997 196° South 501 577 38,000  Level FlightAware ADS-B
Sun 03:00:39 PM 45.2132 -68.7287 196° South 503 579 38,000  Level FlightAware ADS-B
Sun 03:01:13 PM 45.1400 -68.7575 196° South 504 580 38,000  Level FlightAware ADS-B
Sun 03:01:43 PM 45.0694 -68.7852 196° South 507 583 38,000  Level FlightAware ADS-B (YSBK / BWU)
Sun 03:02:13 PM 45.0025 -68.8114 195° South 508 585 38,000  Level FlightAware ADS-B
Sun 03:02:43 PM 44.9321 -68.8389 196° South 510 587 38,000  Level FlightAware ADS-B
Sun 03:03:13 PM 44.8655 -68.8661 198° South 509 586 38,000  Level FlightAware ADS-B (YSBK / BWU)
Sun 03:03:35 PM 44.8180 -68.8902 202° Southwest 508 585 38,000  Level FlightAware ADS-B
Sun 03:03:50 PM 44.7810 -68.9131 205° Southwest 506 582 38,000  Level FlightAware ADS-B
Sun 03:03:59 PM 44.7616 -68.9263 206° Southwest 506 582 38,000  Level FlightAware ADS-B
Sun 03:04:31 PM 44.7029 -68.9678 207° Southwest 507 583 38,000  Level FlightAware ADS-B (KBGR)
Sun 03:05:04 PM 44.6379 -69.0132 206° Southwest 508 585 38,000  Level FlightAware ADS-B (YSBK / BWU)
Sun 03:05:35 PM 44.5636 -69.0639 206° Southwest 509 586 38,000  Level FlightAware ADS-B (KBGR)
Sun 03:06:06 PM 44.5063 -69.1028 206° Southwest 510 587 38,000  Level FlightAware ADS-B (KBGR)
Sun 03:06:39 PM 44.4282 -69.1555 206° Southwest 512 589 38,000  Level FlightAware ADS-B (KBGR)
Sun 03:07:10 PM 44.3644 -69.1984 206° Southwest 514 592 38,000  Level FlightAware ADS-B (KBGR)
Sun 03:07:44 PM 44.2940 -69.2458 206° Southwest 516 594 38,000  Level FlightAware ADS-B (YSBK / BWU)
Sun 03:08:15 PM 44.2229 -69.2934 206° Southwest 518 596 38,000  Level FlightAware ADS-B (YSBK / BWU)
Sun 03:08:45 PM 44.1581 -69.3368 206° Southwest 517 595 38,000  Level FlightAware ADS-B (YSBK / BWU)
Sun 03:09:15 PM 44.0938 -69.3797 206° Southwest 517 595 38,000  Level FlightAware ADS-B (YSBK / BWU)
Sun 03:09:50 PM 44.0181 -69.4299 206° Southwest 516 594 38,000  Level FlightAware ADS-B (KASH)
Sun 03:10:20 PM 43.9544 -69.4723 206° Southwest 517 595 38,000  Level FlightAware ADS-B (KASH)
Sun 03:10:55 PM 43.8877 -69.5164 206° Southwest 517 595 38,000  Level FlightAware ADS-B (YSBK / BWU)
Sun 03:11:27 PM 43.8087 -69.5686 205° Southwest 517 595 38,000  Level FlightAware ADS-B (YSBK / BWU)
Sun 03:12:00 PM 43.7373 -69.6155 206° Southwest 518 596 38,000  Level FlightAware ADS-B (YSBK / BWU)
Sun 03:12:06 PM 43.7269 -69.6224 206° Southwest 520 598 38,000  Level FlightAware ADS-B (YSBK / BWU)
Sun 03:12:50 PM 43.6304 -69.6856 205° Southwest 519 597 38,000  Level FlightAware ADS-B (KASH)
Sun 03:13:28 PM 43.5390 -69.7454 205° Southwest 519 597 38,000  Level FlightAware ADS-B
Sun 03:14:01 PM 43.4760 -69.7844 203° Southwest 520 598 38,000  Level FlightAware ADS-B (KASH)
Sun 03:14:31 PM 43.3966 -69.8185 195° South 527 606 38,000  Level FlightAware ADS-B
Sun 03:15:01 PM 43.3384 -69.8371 191° South 528 608 38,000  Level FlightAware ADS-B (EPKK / KRK)
Sun 03:15:35 PM 43.2563 -69.8538 186° South 531 611 38,000  Level FlightAware ADS-B (EPKK / KRK)
Sun 03:16:06 PM 43.1777 -69.8678 188° South 529 609 38,000  Level FlightAware ADS-B (EPKK / KRK)
Sun 03:16:36 PM 43.1079 -69.8803 187° South 529 609 38,000  Level FlightAware ADS-B (EPKK / KRK)
Sun 03:17:07 PM 43.0322 -69.8920 186° South 529 609 38,000  Level FlightAware ADS-B (EPKK / KRK)
Sun 03:17:44 PM 42.9346 -69.9063 186° South 529 609 38,000  Level FlightAware ADS-B
Sun 03:18:18 PM 42.8575 -69.9174 186° South 528 608 38,000  Level FlightAware ADS-B (EPKK / KRK)
Sun 03:19:05 PM 42.7432 -69.9339 186° South 519 597 38,000  Level FlightAware ADS-B (KASH)
Sun 03:19:40 PM 42.6677 -69.9448 186° South 528 608 38,000  Level FlightAware ADS-B (EPKK / KRK)
Sun 03:20:11 PM 42.5860 -69.9565 186° South 528 608 38,000  Level FlightAware ADS-B (EPKK / KRK)
Sun 03:20:43 PM 42.5056 -69.9680 186° South 521 600 38,000  Level FlightAware ADS-B (KASH)
Sun 03:21:22 PM 42.4113 -69.9815 186° South 529 609 38,000  Level FlightAware ADS-B (EPKK / KRK)
Sun 03:22:05 PM 42.3056 -69.9966 186° South 521 600 38,000  Level FlightAware ADS-B (KASH)
Sun 03:22:23 PM 42.2633 -70.0042 188° South 520 598 38,000  Level FlightAware ADS-B (KASH)
Sun 03:22:41 PM 42.2184 -70.0159 191° South 527 606 38,000  Level FlightAware ADS-B (KASH)
Sun 03:22:56 PM 42.1832 -70.0278 196° South 516 594 38,000  Level FlightAware ADS-B (KASH)
Sun 03:23:38 PM 42.0894 -70.0721 203° Southwest 510 587 38,000  Level FlightAware ADS-B (KASH)
Sun 03:24:12 PM 42.0177 -70.1190 209° Southwest 512 589 38,000  Level FlightAware ADS-B (EPKK / KRK)
Sun 03:24:45 PM 41.9507 -70.1750 215° Southwest 504 580 38,000  Level FlightAware ADS-B (EPKK / KRK)
Sun 03:25:16 PM 41.8948 -70.2325 220° Southwest 498 573 38,000  Level FlightAware ADS-B (EPKK / KRK)
Sun 03:26:11 PM 41.8057 -70.3503 228° Southwest 490 564 38,000  Level FlightAware ADS-B (EPKK / KRK)
Sun 03:26:18 PM 41.7935 -70.3679 227° Southwest 492 566 38,000  Level FlightAware ADS-B (KOWD)
Sun 03:26:59 PM 41.7311 -70.4573 227° Southwest 493 567 38,000  Level FlightAware ADS-B (KOWD)
Sun 03:27:31 PM 41.6817 -70.5284 227° Southwest 490 564 38,000  Level FlightAware ADS-B (EPKK / KRK)
Sun 03:27:45 PM 41.6679 -70.5483 227° Southwest 490 564 38,000  Level FlightAware ADS-B (KOWD)
Sun 03:28:22 PM 41.6219 -70.6149 227° Southwest 488 562 38,000  Level FlightAware ADS-B (KOWD)
Sun 03:28:52 PM 41.5643 -70.6980 227° Southwest 486 559 38,000  Level FlightAware ADS-B (KOWD)
Sun 03:29:24 PM 41.5085 -70.7783 228° Southwest 478 550 38,000  Level FlightAware ADS-B (KASH)
Sun 03:30:05 PM 41.4463 -70.8677 228° Southwest 475 547 38,000  Level FlightAware ADS-B (KASH)
Sun 03:30:39 PM 41.3966 -70.9389 227° Southwest 479 551 38,000  Level FlightAware ADS-B (KASH)
Sun 03:31:09 PM 41.3498 -71.0058 227° Southwest 479 551 38,000  Level FlightAware ADS-B (KASH)
Sun 03:31:39 PM 41.3057 -71.0718 231° Southwest 476 548 38,000  Level FlightAware ADS-B (KASH)
Sun 03:32:24 PM 41.2515 -71.1773 241° Southwest 462 532 38,000  Level FlightAware ADS-B (KASH)
Sun 03:32:54 PM 41.2234 -71.2520 247° West 455 524 38,000  Level FlightAware ADS-B (KASH)
Sun 03:33:24 PM 41.2002 -71.3319 251° West 452 520 38,000  Level FlightAware ADS-B (KASH)
Sun 03:34:08 PM 41.1683 -71.4470 250° West 457 526 38,000  Level FlightAware ADS-B (KASH)
Sun 03:35:05 PM 41.1256 -71.5983 250° West 458 527 38,000  Level FlightAware ADS-B (KASH)
Sun 03:35:44 PM 41.0862 -71.6946 245° Southwest 459 528 38,000  Level FlightAware ADS-B (KASH)
Sun 03:37:49 PM 40.8955 -71.9561 250° West 455 524 38,000  Level FlightAware ADS-B (KWWD)
Sun 03:38:24 PM 40.8413 -72.0300 250° West 455 524 38,000  Level FlightAware ADS-B (KWWD)
Sun 03:38:48 PM 40.8046 -72.0797 226° Southwest 481 554 38,000  Level FlightAware ADS-B (KWWD)
Sun 03:39:47 PM 40.7138 -72.2034 227° Southwest 472 543 38,000  Level FlightAware ADS-B (KWWD)
Sun 03:40:37 PM 40.6379 -72.3070 227° Southwest 467 537 38,000  Level FlightAware ADS-B (KWWD)
Sun 03:41:41 PM 40.5408 -72.4386 226° Southwest 469 540 38,000  Level FlightAware ADS-B (KWWD)
Sun 03:42:11 PM 40.4987 -72.4956 226° Southwest 468 539 38,000  Level FlightAware ADS-B (KWWD)
Sun 03:43:06 PM 40.4124 -72.6120 227° Southwest 464 534 38,000  Level FlightAware ADS-B (KWWD)
Sun 03:43:40 PM 40.3614 -72.6805 227° Southwest 465 535 38,000  Level FlightAware ADS-B (KWWD)
Sun 03:44:19 PM 40.3048 -72.7564 226° Southwest 463 533 38,000  Level FlightAware ADS-B (KWWD)
Sun 03:44:50 PM 40.2548 -72.8232 226° Southwest 467 537 38,000  Level FlightAware ADS-B (KWWD)
Sun 03:45:27 PM 40.1998 -72.8966 226° Southwest 463 533 38,000  Level FlightAware ADS-B (KWWD)
Sun 03:46:09 PM 40.1369 -72.9804 226° Southwest 462 532 38,000  Level FlightAware ADS-B (KWWD)
Sun 03:46:41 PM 40.0891 -73.0437 226° Southwest 462 532 38,000  Level FlightAware ADS-B (KPHL)
Sun 03:47:18 PM 40.0339 -73.1170 226° Southwest 463 533 38,000  Level FlightAware ADS-B (KPHL)
Sun 03:47:53 PM 39.9804 -73.1876 225° Southwest 462 532 38,000  Level FlightAware ADS-B (KWWD)
Sun 03:48:25 PM 39.9326 -73.2505 225° Southwest 464 534 38,000  Level FlightAware ADS-B (KWWD)
Sun 03:48:57 PM 39.8847 -73.3135 225° Southwest 465 535 38,000  Level FlightAware ADS-B (KWWD)
Sun 03:49:41 PM 39.8185 -73.4005 226° Southwest 460 529 38,000  Level FlightAware ADS-B (KWWD)
Sun 03:49:56 PM 39.7942 -73.4306 219° Southwest 471 542 38,000  Level FlightAware ADS-B (KPHL)
Sun 03:50:28 PM 39.7369 -73.4836 215° Southwest 467 537 38,000  Level FlightAware ADS-B (KWWD)
Sun 03:51:01 PM 39.6803 -73.5334 215° Southwest 468 539 38,000  Level FlightAware ADS-B (KWWD)
Sun 03:51:33 PM 39.6238 -73.5834 214° Southwest 475 547 38,000  Level FlightAware ADS-B (KPHL)
Sun 03:52:00 PM 39.5698 -73.6311 214° Southwest 473 544 38,000  Level FlightAware ADS-B (KPHL)
Sun 03:52:41 PM 39.4979 -73.6945 214° Southwest 471 542 38,000  Level FlightAware ADS-B (KWWD)
Sun 03:53:14 PM 39.4370 -73.7481 214° Southwest 469 540 38,000  Level FlightAware ADS-B (KPHL)
Sun 03:53:51 PM 39.3716 -73.8055 214° Southwest 469 540 38,000  Level FlightAware ADS-B (KWWD)
Sun 03:54:22 PM 39.3164 -73.8539 214° Southwest 472 543 38,000  Level FlightAware ADS-B (KWWD)
Sun 03:55:11 PM 39.2275 -73.9317 214° Southwest 472 543 38,000  Level FlightAware ADS-B (KWWD)
Sun 03:55:52 PM 39.1551 -73.9949 214° Southwest 471 542 38,000  Level FlightAware ADS-B (KWWD)
Sun 03:56:43 PM 39.0625 -74.0757 214° Southwest 469 540 38,000  Level FlightAware ADS-B (KWWD)
Sun 03:57:15 PM 39.0051 -74.1256 214° Southwest 469 540 38,000  Level FlightAware ADS-B (KPHL)
Sun 03:57:53 PM 38.9366 -74.1849 214° Southwest 468 539 38,000  Level FlightAware ADS-B (KWWD)
Sun 03:58:32 PM 38.8677 -74.2446 214° Southwest 468 539 38,000  Level FlightAware ADS-B (KWWD)
Sun 03:59:10 PM 38.7987 -74.3041 214° Southwest 470 541 38,000  Level FlightAware ADS-B (KWWD)
Sun 04:00:42 PM 38.6325 -74.4471 214° Southwest 465 535 38,000  Level FlightAware ADS-B (KWWD)
Sun 04:01:17 PM 38.5687 -74.5016 214° Southwest 465 535 38,000  Level FlightAware ADS-B (KWWD)
Sun 04:01:53 PM 38.5040 -74.5569 214° Southwest 467 537 38,000  Level FlightAware ADS-B (KWWD)
Sun 04:02:28 PM 38.4392 -74.6122 214° Southwest 468 539 38,000  Level FlightAware ADS-B (KWWD)
Sun 04:03:01 PM 38.3784 -74.6640 214° Southwest 469 540 38,000  Level FlightAware ADS-B (KWWD)
Sun 04:03:32 PM 38.3222 -74.7116 214° Southwest 469 540 38,000  Level FlightAware ADS-B (KWWD)
Sun 04:04:22 PM 38.2305 -74.7893 214° Southwest 469 540 38,000  Level FlightAware ADS-B (KWWD)
Sun 04:05:02 PM 38.1582 -74.8504 214° Southwest 470 541 38,000  Level FlightAware ADS-B (KWWD)
Sun 04:05:37 PM 38.0936 -74.9047 214° Southwest 470 541 38,000  Level FlightAware ADS-B (KWWD)
Sun 04:06:14 PM 38.0259 -74.9616 214° Southwest 470 541 38,000  Level FlightAware ADS-B (KWWD)
Sun 04:06:48 PM 37.9703 -75.0083 214° Southwest 475 547 38,000  Level FlightAware ADS-B (EGAA / BFS)
Sun 04:07:33 PM 37.8817 -75.0824 214° Southwest 467 537 38,000  Level FlightAware ADS-B (KWWD)
Sun 04:08:13 PM 37.8086 -75.1434 214° Southwest 475 547 38,000  Level FlightAware ADS-B (EGAA / BFS)
Sun 04:08:59 PM 37.7237 -75.2142 213° Southwest 476 548 38,000  Level FlightAware ADS-B (EGAA / BFS)
Sun 04:09:50 PM 37.6307 -75.2914 214° Southwest 477 549 38,000  Level FlightAware ADS-B (EGAA / BFS)
Sun 04:13:49 PM 37.1889 -75.6550 214° Southwest 469 540 38,000  Level FlightAware ADS-B (KWWD)
Sun 04:14:27 PM 37.1188 -75.7122 214° Southwest 467 537 38,000  Level FlightAware ADS-B (KWWD)
Sun 04:15:04 PM 37.0517 -75.7669 214° Southwest 466 536 38,000  Level FlightAware ADS-B (KWWD)
Sun 04:16:02 PM 36.9441 -75.8542 214° Southwest 465 535 38,000  Level FlightAware ADS-B (KWWD)
Sun 04:16:55 PM 36.8476 -75.9323 214° Southwest 462 532 38,000  Level FlightAware ADS-B (KWWD)
Sun 04:17:31 PM 36.7911 -75.9780 214° Southwest 462 532 38,000  Level FlightAware ADS-B (KWWD)
Sun 04:18:23 PM 36.6961 -76.0545 213° Southwest 468 539 38,000  Level FlightAware ADS-B
Sun 04:18:53 PM 36.6329 -76.1053 213° Southwest 469 540 38,000  Level FlightAware ADS-B
Sun 04:19:24 PM 36.5765 -76.1505 213° Southwest 470 541 38,000  Level FlightAware ADS-B
Sun 04:19:54 PM 36.5216 -76.1945 213° Southwest 464 534 38,000  Level FlightAware ADS-B (KWWD)
Sun 04:20:37 PM 36.4603 -76.2435 213° Southwest 471 542 38,000  Level FlightAware ADS-B
Sun 04:21:10 PM 36.3843 -76.3041 213° Southwest 472 543 38,000  Level FlightAware ADS-B
Sun 04:21:47 PM 36.3258 -76.3506 213° Southwest 467 537 38,000  Level FlightAware ADS-B (KWWD)
Sun 04:22:18 PM 36.2582 -76.4043 213° Southwest 467 537 38,000  Level FlightAware ADS-B (KWWD)
Sun 04:22:53 PM 36.1974 -76.4526 213° Southwest 473 544 38,000  Level FlightAware ADS-B
Sun 04:23:24 PM 36.1356 -76.5014 213° Southwest 474 545 38,000  Level FlightAware ADS-B
Sun 04:23:54 PM 36.0788 -76.5463 213° Southwest 476 548 38,000  Level FlightAware ADS-B
Sun 04:24:25 PM 36.0301 -76.5848 213° Southwest 477 549 38,000  Level FlightAware ADS-B
Sun 04:24:55 PM 35.9666 -76.6348 213° Southwest 479 551 38,000  Level FlightAware ADS-B
Sun 04:25:40 PM 35.8904 -76.6946 213° Southwest 479 551 38,000  Level FlightAware ADS-B
Sun 04:26:10 PM 35.8279 -76.7436 213° Southwest 479 551 38,000  Level FlightAware ADS-B
Sun 04:26:53 PM 35.7461 -76.8075 213° Southwest 479 551 38,000  Level FlightAware ADS-B
Sun 04:27:25 PM 35.6875 -76.8533 213° Southwest 479 551 38,000  Level FlightAware ADS-B
Sun 04:28:10 PM 35.6017 -76.9200 212° Southwest 478 550 38,000  Level FlightAware ADS-B
Sun 04:28:53 PM 35.5213 -76.9825 212° Southwest 478 550 38,000  Level FlightAware ADS-B
Sun 04:29:35 PM 35.4429 -77.0433 212° Southwest 477 549 38,000  Level FlightAware ADS-B
Sun 04:30:37 PM 35.3355 -77.1262 212° Southwest 476 548 38,000  Level FlightAware ADS-B
Sun 04:31:22 PM 35.2432 -77.1974 212° Southwest 475 547 38,000  Level FlightAware ADS-B
Sun 04:32:10 PM 35.1570 -77.2636 212° Southwest 476 548 38,000  Level FlightAware ADS-B
Sun 04:32:40 PM 35.1049 -77.3036 212° Southwest 476 548 38,000  Level FlightAware ADS-B
Sun 04:34:55 PM 34.8497 -77.4985 212° Southwest 477 549 38,000  Level FlightAware ADS-B
Sun 04:36:01 PM 34.7353 -77.5861 212° Southwest 484 557 38,000  Level Washington Center
Sun 04:36:58 PM 34.6253 -77.6717 213° Southwest 484 557 38,000  Level Washington Center
Sun 04:37:59 PM 34.5133 -77.7572 212° Southwest 484 557 38,000  Level Washington Center
Sun 04:39:00 PM 34.4075 -77.8350 211° Southwest 491 565 38,000  Level Washington Center
Sun 04:41:00 PM 34.1417 -77.9325 197° South 482 555 38,000  Level Jacksonville Center
Sun 04:42:00 PM 34.0136 -77.9697 194° South 482 555 38,000  Level Jacksonville Center
Sun 04:43:00 PM 33.8897 -78.0044 193° South 482 555 38,000  Level Jacksonville Center
Sun 04:44:00 PM 33.7661 -78.0411 194° South 472 543 38,000  Level Jacksonville Center
Sun 04:45:00 PM 33.6383 -78.0831 195° South 472 543 38,000  Level Jacksonville Center
Sun 04:46:00 PM 33.5122 -78.1175 193° South 467 537 38,000  Level Jacksonville Center
Sun 04:47:00 PM 33.3886 -78.1539 194° South 467 537 38,000  Level Jacksonville Center
Sun 04:48:00 PM 33.2647 -78.1878 193° South 467 537 38,000  Level Jacksonville Center
Sun 04:49:00 PM 33.1367 -78.2242 193° South 467 537 38,000  Level Jacksonville Center
Sun 04:50:00 PM 33.0125 -78.2581 193° South 467 537 38,000  Level Jacksonville Center
Sun 04:51:00 PM 32.8844 -78.2917 192° South 467 537 38,000  Level Jacksonville Center
Sun 04:52:00 PM 32.7608 -78.3328 196° South 467 537 38,000  Level Jacksonville Center
Sun 04:53:00 PM 32.6344 -78.3636 192° South 467 537 38,000  Level Jacksonville Center
Sun 04:54:00 PM 32.5106 -78.4019 195° South 467 537 38,000  Level Jacksonville Center
Sun 04:55:00 PM 32.3825 -78.4353 192° South 467 537 38,000  Level Jacksonville Center
Sun 04:56:00 PM 32.2583 -78.4708 194° South 467 537 38,000  Level Jacksonville Center
Sun 04:57:00 PM 32.1303 -78.5114 195° South 467 537 38,000  Level Jacksonville Center
Sun 04:58:00 PM 32.0064 -78.5467 194° South 467 537 38,000  Level Jacksonville Center
Sun 04:59:00 PM 31.8844 -78.5794 193° South 467 537 38,000  Level Jacksonville Center
Sun 05:00:00 PM 31.7564 -78.6194 195° South 472 543 38,000  Level Jacksonville Center
Sun 05:01:00 PM 31.6344 -78.6592 196° South 466 536 38,000  Level Jacksonville Center
Sun 05:02:00 PM 31.5128 -78.7061 198° South 461 531 38,000  Level Jacksonville Center
Sun 05:03:00 PM 31.3931 -78.7456 196° South 458 527 38,000  Level Jacksonville Center
Sun 05:04:00 PM 31.2736 -78.7922 198° South 446 513 38,000  Level Jacksonville Center
Sun 05:05:00 PM 31.1519 -78.8436 200° South 452 520 38,000  Level Jacksonville Center
Sun 05:06:00 PM 31.0344 -78.8850 197° South 452 520 38,000  Level Jacksonville Center
Sun 05:07:00 PM 30.9292 -78.9233 197° South 452 520 38,000  Level Jacksonville Center
Sun 05:08:00 PM 30.8133 -78.9647 197° South 452 520 38,000  Level Jacksonville Center
Sun 05:09:00 PM 30.6958 -79.0106 199° South 446 513 38,000  Level Jacksonville Center
Sun 05:10:00 PM 30.5761 -79.0517 196° South 440 506 38,000  Level Jacksonville Center
Sun 05:11:07 PM 30.4403 -79.1036 198° South 442 509 38,000  Level Miami Center
Sun 05:12:09 PM 30.3222 -79.1469 198° South 442 509 38,000  Level Miami Center
Sun 05:13:10 PM 30.2036 -79.1894 197° South 445 512 38,000  Level Miami Center
Sun 05:14:12 PM 30.0928 -79.2525 206° Southwest 445 512 38,000  Level Miami Center
Sun 05:15:14 PM 29.9722 -79.3197 206° Southwest 445 512 38,000  Level Miami Center
Sun 05:16:16 PM 29.8711 -79.3775 206° Southwest 445 512 38,000  Level Miami Center
Sun 05:17:18 PM 29.7381 -79.4528 206° Southwest 444 511 38,000  Level Miami Center
Sun 05:18:20 PM 29.6397 -79.5083 206° Southwest 445 512 38,000  Level Miami Center
Sun 05:19:22 PM 29.5056 -79.5853 207° Southwest 445 512 38,000  Level Miami Center
Sun 05:24:46 PM 28.8918 -79.9274 206° Southwest 449 517 38,000  Level FlightAware ADS-B
Sun 05:25:25 PM 28.8191 -79.9678 206° Southwest 445 512 38,000  Level FlightAware ADS-B
Sun 05:26:06 PM 28.7467 -80.0079 206° Southwest 440 506 38,000  Level FlightAware ADS-B
Sun 05:26:45 PM 28.6725 -80.0491 206° Southwest 438 504 38,000  Level FlightAware ADS-B
Sun 05:27:26 PM 28.5954 -80.0918 206° Southwest 435 501 38,000  Level FlightAware ADS-B
Sun 05:28:01 PM 28.5346 -80.1253 206° Southwest 432 497 38,000  Level FlightAware ADS-B
Sun 05:28:48 PM 28.4484 -80.1729 206° Southwest 432 497 38,000  Level FlightAware ADS-B
Sun 05:29:28 PM 28.3763 -80.2126 206° Southwest 433 498 38,000  Level FlightAware ADS-B
Sun 05:30:09 PM 28.3026 -80.2532 206° Southwest 436 502 38,000  Level FlightAware ADS-B
Sun 05:30:48 PM 28.2318 -80.2919 206° Southwest 437 503 38,000  Level FlightAware ADS-B
Sun 05:31:28 PM 28.1581 -80.3324 206° Southwest 439 505 38,000  Level FlightAware ADS-B
Sun 05:32:09 PM 28.0838 -80.3731 206° Southwest 437 503 38,000  Level FlightAware ADS-B
Sun 05:32:48 PM 28.0124 -80.4121 206° Southwest 436 502 38,000  Level FlightAware ADS-B
Sun 05:33:29 PM 27.9414 -80.4508 206° Southwest 435 501 38,000  Level FlightAware ADS-B
Sun 05:34:08 PM 27.8674 -80.4911 206° Southwest 435 501 38,000  Level FlightAware ADS-B
Sun 05:34:49 PM 27.7970 -80.5294 206° Southwest 439 505 38,000  Level FlightAware ADS-B
Sun 05:35:27 PM 27.7302 -80.5656 206° Southwest 440 506 38,000  Level FlightAware ADS-B
Sun 05:36:28 PM 27.6248 -80.6228 206° Southwest 441 507 38,000  Level FlightAware ADS-B
Sun 05:37:09 PM 27.5377 -80.6699 206° Southwest 440 506 38,000  Level FlightAware ADS-B
Sun 05:37:49 PM 27.4628 -80.7104 206° Southwest 441 507 38,000  Level FlightAware ADS-B
Sun 05:38:49 PM 27.3709 -80.7601 206° Southwest 436 502 38,000  Level FlightAware ADS-B
Sun 05:39:29 PM 27.2800 -80.8090 206° Southwest 435 501 38,000  Level FlightAware ADS-B
Sun 05:40:08 PM 27.2092 -80.8470 206° Southwest 430 495 38,000  Level FlightAware ADS-B
Sun 05:40:59 PM 27.1181 -80.8959 206° Southwest 436 502 38,000  Level FlightAware ADS-B
Sun 05:42:58 PM 26.9003 -81.0124 206° Southwest 433 498 38,000  Level FlightAware ADS-B
Sun 05:43:48 PM 26.8144 -81.0706 213° Southwest 439 505 38,000  Level FlightAware ADS-B
Sun 05:45:48 PM 26.6093 -81.2241 214° Southwest 441 507 38,000  Level FlightAware ADS-B
Sun 05:46:28 PM 26.5433 -81.2744 215° Southwest 438 504 38,000  Level FlightAware ADS-B
Sun 05:47:08 PM 26.4780 -81.3245 215° Southwest 437 503 38,000  Level FlightAware ADS-B
Sun 05:47:42 PM 26.4286 -81.3614 214° Southwest 437 503 38,000  Level FlightAware ADS-B
Sun 05:48:28 PM 26.3380 -81.4206 208° Southwest 434 499 38,000  Level FlightAware ADS-B
Sun 05:49:09 PM 26.2684 -81.4616 208° Southwest 421 484 38,000  Level FlightAware ADS-B
Sun 05:50:08 PM 26.1615 -81.5224 207° Southwest 441 507 38,000  Level FlightAware ADS-B
Sun 05:50:49 PM 26.0869 -81.5619 205° Southwest 448 516 38,000  Level FlightAware ADS-B
Sun 05:53:06 PM 25.9309 -81.6379 202° Southwest 458 527 38,000  Level FlightAware ADS-B
Sun 05:54:30 PM 25.6722 -81.7572 202° Southwest 458 527 38,000  Level Miami Center
Sun 05:55:31 PM 25.5469 -81.8153 203° Southwest 456 525 38,000 -49 Level Miami Center
Sun 05:56:33 PM 25.4286 -81.8706 203° Southwest 456 525 37,900 -435 Descending Miami Center
Sun 05:57:35 PM 25.3186 -81.9211 203° Southwest 462 532 37,100 -435 Descending Miami Center
Sun 05:58:37 PM 25.1808 -81.9847 203° Southwest 454 522 37,000 -581 Descending Miami Center
Sun 05:59:39 PM 25.0653 -82.0361 202° Southwest 451 519 35,900 -1,645 Descending Miami Center
Sun 06:00:41 PM 24.9464 -82.0914 203° Southwest 459 528 33,600 -2,323 Descending Miami Center
Sun 06:01:43 PM 24.8267 -82.1456 202° Southwest 463 533 31,100 -2,323 Descending Miami Center
Sun 06:02:45 PM 24.7092 -82.2000 203° Southwest 463 533 28,800 -1,839 Descending Miami Center
Sun 06:03:47 PM 24.5956 -82.2506 202° Southwest 442 509 27,300 -1,306 Descending Miami Center
Sun 06:04:49 PM 24.4689 -82.3083 203° Southwest 412 474 26,100 -1,065 Descending Miami Center
Sun 06:05:51 PM 24.3686 -82.3542 203° Southwest 396 456 25,100 -968 Descending Miami Center
Sun 06:06:53 PM 24.2678 -82.3983 202° Southwest 394 453 24,100 -1,016 Descending Miami Center
Sun 06:07:55 PM 24.1647 -82.4444 202° Southwest 387 445 23,000 -871 Descending Miami Center
Sun 06:08:57 PM 24.0697 -82.4897 204° Southwest 376 433 22,300 -677 Descending Miami Center
Sun 06:10:00 PM 23.9593 -82.5108 173° South  Level FlightAware Approximate
Sun 06:17:00 PM 23.1312 -82.4162 170° South  Level FlightAware Approximate
Sun 06:18:00 PM 23.0135 -82.4000 180° South  Level FlightAware Approximate
Sun 06:19:00 PM 22.9891 -82.4091 180° South  Level Estimated
Sun 06:20:00 PM 22.9891 -82.4091 180° South  Level Estimated
Sun 06:21:00 PM 22.9891 -82.4091 180° South  Level Estimated
Sun 06:22:00 PM 22.9891 -82.4091 180° South  Level Estimated
Sun 06:23:00 PM 22.9891 -82.4091 180° South  Level Estimated
Sun 06:24:00 PM 22.9891 -82.4091 180° South  Level Estimated
Sun 06:25:00 PM 22.9891 -82.4091 180° South  Level Estimated
Sun 06:26:00 PM 22.9891 -82.4091 180° South  Level Estimated
Sun 06:27:00 PM 22.9891 -82.4091 180° South  Level Estimated
Sun 06:28:00 PM 22.9891 -82.4091 180° South  Level Estimated
Sun 06:29:00 PM 22.9891 -82.4091 180° South  Level Estimated
Sun 06:30:00 PM 22.9891 -82.4091 180° South  Level Estimated
Sun 06:31:00 PM 22.9891 -82.4091 180° South  Level Estimated
Sun 06:32:00 PM 22.9891 -82.4091 180° South  Level Estimated
Sun 06:33:00 PM 22.9891 -82.4091 180° South  Level Estimated
Sun 06:34:00 PM 22.9891 -82.4091 180° South  Level Estimated
Sun 06:35:00 PM 22.9891 -82.4091 180° South  Level Estimated
Sun 06:36:00 PM 22.9891 -82.4091 180° South  Level Estimated
Sun 06:37:00 PM 22.9891 -82.4091 180° South  Level Estimated
Sun 06:38:00 PM 22.9891 -82.4091 180° South  Level Estimated
Sun 06:39:00 PM 22.9891 -82.4091 180° South  Level Estimated
Sun 06:40:00 PM 22.9891 -82.4091 180° South  Level Estimated

Login

Don't have an account? Register now (free) for customized features, flight alerts, and more!